Time;durP1;ratioP1;P1;durP2;ratioP2;P2;SDS_P1;SDS_P2;PMS_P1;PMS_P2;Temp;Humidity;BMP_temperature;BMP_pressure;BME280_temperature;BME280_humidity;BME280_pressure;Samples;Min_cycle;Max_cycle;Signal;HPM_P1;HPM_P2
2021/12/20 00:00:43;;;;;;;0.20;0.20;;;;;;;-0.22;100.00;101899.22;4994804;28;20072;-83
2021/12/20 00:03:18;;;;;;;0.20;0.20;;;;;;;-0.26;100.00;101899.72;4992665;28;20054;-83
2021/12/20 00:05:51;;;;;;;0.20;0.20;;;;;;;-0.26;100.00;101895.22;4989948;28;20050;-83
2021/12/20 00:08:24;;;;;;;0.20;0.20;;;;;;;-0.27;100.00;101900.75;4991994;28;20050;-83
2021/12/20 00:10:58;;;;;;;0.10;0.10;;;;;;;-0.27;100.00;101893.56;4991008;28;20419;-84
2021/12/20 00:13:31;;;;;;;0.20;0.20;;;;;;;-0.27;100.00;101876.69;4990327;28;20399;-82
2021/12/20 00:16:05;;;;;;;0.20;0.20;;;;;;;-0.18;100.00;101897.00;4989356;28;20423;-83
2021/12/20 00:18:34;;;;;;;0.20;0.20;;;;;;;-0.25;100.00;101875.50;4991883;28;20450;-83
2021/12/20 00:21:02;;;;;;;0.20;0.20;;;;;;;-0.27;100.00;101882.03;4988746;28;20481;-83
2021/12/20 00:23:36;;;;;;;0.15;0.15;;;;;;;-0.22;100.00;101895.69;4995673;28;20498;-83
2021/12/20 00:26:09;;;;;;;0.28;0.28;;;;;;;-0.23;100.00;101886.84;4988826;28;20049;-83
2021/12/20 00:28:43;;;;;;;0.20;0.20;;;;;;;-0.14;100.00;101887.59;4991020;28;20058;-82
2021/12/20 00:31:11;;;;;;;0.20;0.20;;;;;;;-0.34;100.00;101865.88;4988756;28;20403;-83
2021/12/20 00:33:46;;;;;;;0.15;0.15;;;;;;;-0.16;100.00;101895.00;4993011;28;20061;-83
2021/12/20 00:36:22;;;;;;;0.20;0.20;;;;;;;-0.15;100.00;101902.03;4990382;28;20403;-83
2021/12/20 00:41:45;;;;;;;0.20;0.20;;;;;;;-0.14;100.00;101897.50;4986984;28;20635;-83
2021/12/20 00:44:19;;;;;;;0.10;0.10;;;;;;;-0.22;100.00;101890.34;4988322;28;20042;-83
2021/12/20 00:46:52;;;;;;;0.20;0.20;;;;;;;-0.25;100.00;101894.22;4989660;28;20081;-83
2021/12/20 00:49:28;;;;;;;0.20;0.20;;;;;;;-0.25;100.00;101891.56;4992534;28;20474;-83
2021/12/20 00:52:01;;;;;;;0.20;0.20;;;;;;;-0.36;100.00;101897.28;4987462;28;20050;-83
2021/12/20 00:54:34;;;;;;;0.20;0.20;;;;;;;-0.35;100.00;101902.50;4985594;28;20066;-83
2021/12/20 00:57:07;;;;;;;0.30;0.20;;;;;;;-0.32;100.00;101911.16;4989765;28;20043;-83
2021/12/20 00:59:35;;;;;;;0.17;0.17;;;;;;;-0.44;100.00;101890.16;4993016;28;20058;-83
2021/12/20 01:02:04;;;;;;;0.20;0.20;;;;;;;-0.37;100.00;101892.97;4993359;28;20049;-83
2021/12/20 01:04:38;;;;;;;0.20;0.20;;;;;;;-0.31;100.00;101899.47;4992261;28;20050;-83
2021/12/20 01:07:12;;;;;;;0.17;0.17;;;;;;;-0.44;100.00;101881.28;5024201;28;20046;-83
2021/12/20 01:09:45;;;;;;;0.20;0.20;;;;;;;-0.39;100.00;101903.84;4989726;28;20050;-83
2021/12/20 01:12:20;;;;;;;0.22;0.22;;;;;;;-0.36;100.00;101906.16;4993760;28;20050;-82
2021/12/20 01:14:59;;;;;;;0.28;0.28;;;;;;;-0.37;100.00;101909.03;4989128;28;20051;-83
2021/12/20 01:17:32;;;;;;;0.20;0.20;;;;;;;-0.41;100.00;101913.88;4990816;28;20061;-83
2021/12/20 01:20:01;;;;;;;0.20;0.20;;;;;;;-0.44;100.00;101916.91;4989765;28;20530;-83
2021/12/20 01:22:35;;;;;;;0.30;0.30;;;;;;;-0.51;100.00;101910.59;4990945;28;20054;-83
2021/12/20 01:25:09;;;;;;;0.20;0.20;;;;;;;-0.62;100.00;101906.50;5006663;28;20058;-83
2021/12/20 01:27:43;;;;;;;0.20;0.20;;;;;;;-0.60;100.00;101912.47;5012309;28;20038;-83
2021/12/20 01:30:18;;;;;;;0.17;0.17;;;;;;;-0.66;100.00;101905.16;5001037;28;20055;-83
2021/12/20 01:32:52;;;;;;;0.30;0.30;;;;;;;-0.66;100.00;101907.84;4989461;28;20050;-83
2021/12/20 01:35:28;;;;;;;0.28;0.20;;;;;;;-0.66;100.00;101899.81;4990755;28;20065;-83
2021/12/20 01:38:01;;;;;;;0.20;0.20;;;;;;;-0.67;100.00;101897.31;4988873;28;20046;-84
2021/12/20 01:40:35;;;;;;;0.20;0.20;;;;;;;-0.80;100.00;101893.38;4992494;28;20126;-82
2021/12/20 01:43:05;;;;;;;0.20;0.20;;;;;;;-0.72;100.00;101904.03;4991616;28;20533;-83
2021/12/20 01:45:33;;;;;;;0.20;0.20;;;;;;;-0.65;100.00;101919.34;4990983;28;20050;-83
2021/12/20 01:48:09;;;;;;;0.17;0.17;;;;;;;-0.64;100.00;101918.34;4993333;28;20050;-83
2021/12/20 01:50:49;;;;;;;0.20;0.20;;;;;;;-0.53;100.00;101915.28;4993866;28;20058;-83
2021/12/20 01:53:25;;;;;;;0.20;0.20;;;;;;;-0.63;100.00;101907.47;4996663;28;20054;-82
2021/12/20 01:55:55;;;;;;;0.22;0.22;;;;;;;-0.69;100.00;101902.84;4994960;28;20499;-83
2021/12/20 01:58:30;;;;;;;0.20;0.20;;;;;;;-0.70;100.00;101910.03;4990143;28;20058;-83
2021/12/20 02:01:20;;;;;;;0.30;0.30;;;;;;;-0.79;100.00;101915.59;4992002;28;20511;-83
2021/12/20 02:03:55;;;;;;;0.20;0.20;;;;;;;-0.78;100.00;101912.72;4992541;28;20423;-83
2021/12/20 02:06:34;;;;;;;0.20;0.20;;;;;;;-0.93;100.00;101888.56;4992417;28;20054;-83
2021/12/20 02:09:09;;;;;;;0.30;0.30;;;;;;;-0.88;100.00;101902.25;4991592;28;20050;-83
2021/12/20 02:11:44;;;;;;;0.20;0.20;;;;;;;-0.86;100.00;101912.75;4998688;28;20051;-83
2021/12/20 02:14:19;;;;;;;0.20;0.20;;;;;;;-0.90;100.00;101901.59;4990808;28;20046;-83
2021/12/20 02:16:52;;;;;;;0.20;0.20;;;;;;;-0.90;100.00;101901.59;4993260;28;20081;-82
2021/12/20 02:19:27;;;;;;;0.15;0.15;;;;;;;-0.78;100.00;101909.22;5023504;28;20050;-83
2021/12/20 02:22:03;;;;;;;0.10;0.10;;;;;;;-0.74;100.00;101906.03;5022814;28;20458;-83
2021/12/20 02:24:36;;;;;;;0.30;0.30;;;;;;;-0.89;100.00;101900.56;5022303;28;20065;-82
2021/12/20 02:27:05;;;;;;;0.20;0.20;;;;;;;-0.81;100.00;101898.91;4994716;28;20073;-83
2021/12/20 02:29:44;;;;;;;0.20;0.20;;;;;;;-0.83;100.00;101901.72;4995489;28;20050;-83
2021/12/20 02:38:01;;;;;;;0.20;0.20;;;;;;;-0.89;100.00;101908.59;4999686;28;20042;-84
2021/12/20 02:40:34;;;;;;;0.20;0.20;;;;;;;-0.99;100.00;101905.31;5008501;28;20050;-83
2021/12/20 02:43:11;;;;;;;0.20;0.20;;;;;;;-1.15;100.00;101871.47;4989908;28;20065;-83
2021/12/20 02:45:40;;;;;;;0.20;0.20;;;;;;;-0.99;100.00;101902.63;4991112;28;20050;-83
2021/12/20 02:48:13;;;;;;;0.25;0.25;;;;;;;-1.03;100.00;101904.81;4991835;28;20065;-83
2021/12/20 02:50:46;;;;;;;0.20;0.20;;;;;;;-1.07;100.00;101887.47;4988919;28;20058;-82
2021/12/20 02:53:21;;;;;;;0.30;0.30;;;;;;;-1.05;100.00;101900.63;4991170;28;20054;-83
2021/12/20 02:55:49;;;;;;;0.20;0.20;;;;;;;-1.10;100.00;101905.69;5022566;28;20055;-83
2021/12/20 02:58:17;;;;;;;0.20;0.20;;;;;;;-1.09;100.00;101905.50;4991034;28;20402;-83
2021/12/20 03:00:51;;;;;;;0.20;0.20;;;;;;;-0.99;100.00;101899.97;4999118;28;20046;-83
2021/12/20 03:03:19;;;;;;;0.10;0.10;;;;;;;-1.05;100.00;101916.66;4991568;28;20482;-83
2021/12/20 03:05:47;;;;;;;0.20;0.20;;;;;;;-1.04;100.00;101913.84;4996981;28;20537;-83
2021/12/20 03:08:16;;;;;;;0.22;0.22;;;;;;;-0.97;100.00;101907.81;4992438;28;20482;-83
2021/12/20 03:10:50;;;;;;;0.20;0.20;;;;;;;-1.05;100.00;101912.19;4991687;28;20042;-83
2021/12/20 03:13:24;;;;;;;0.20;0.20;;;;;;;-1.08;100.00;101903.66;4993198;28;20073;-83
2021/12/20 03:15:57;;;;;;;0.20;0.20;;;;;;;-1.10;100.00;101895.00;4989698;28;20058;-83
2021/12/20 03:18:30;;;;;;;0.45;0.25;;;;;;;-1.12;100.00;101902.34;4992771;28;20054;-83
2021/12/20 03:21:04;;;;;;;0.20;0.20;;;;;;;-1.21;100.00;101886.34;4997687;28;20057;-82
2021/12/20 03:23:37;;;;;;;0.20;0.20;;;;;;;-1.14;100.00;101894.50;4993242;28;20046;-82
2021/12/20 03:26:12;;;;;;;0.22;0.22;;;;;;;-0.97;100.00;101913.16;5018544;28;20054;-83
2021/12/20 03:28:40;;;;;;;0.22;0.22;;;;;;;-1.06;100.00;101907.84;5000154;28;20376;-84
2021/12/20 03:31:13;;;;;;;0.20;0.20;;;;;;;-1.07;100.00;101911.50;4997826;28;20073;-83
2021/12/20 03:33:41;;;;;;;0.20;0.20;;;;;;;-1.04;100.00;101907.66;4994999;28;20058;-83
2021/12/20 03:36:10;;;;;;;0.20;0.20;;;;;;;-1.13;100.00;101909.53;4994798;28;20407;-83
2021/12/20 03:38:43;;;;;;;0.20;0.20;;;;;;;-1.10;100.00;101919.03;4990239;28;20038;-82
2021/12/20 03:41:18;;;;;;;0.20;0.20;;;;;;;-1.14;100.00;101907.03;4992691;28;20061;-83
2021/12/20 03:43:46;;;;;;;0.15;0.15;;;;;;;-1.14;100.00;101907.03;4991305;28;20085;-83
2021/12/20 03:46:19;;;;;;;0.20;0.20;;;;;;;-1.20;100.00;101911.22;4992909;28;20489;-83
2021/12/20 03:48:53;;;;;;;0.15;0.15;;;;;;;-1.26;100.00;101898.53;4995578;28;20050;-82
2021/12/20 03:51:21;;;;;;;0.20;0.20;;;;;;;-1.17;100.00;101916.22;4993212;28;20066;-83
2021/12/20 03:53:49;;;;;;;0.20;0.20;;;;;;;-1.29;100.00;101913.06;4992471;28;20491;-83
2021/12/20 03:56:24;;;;;;;0.20;0.20;;;;;;;-1.25;100.00;101916.25;4990988;28;20034;-83
2021/12/20 03:58:53;;;;;;;0.20;0.20;;;;;;;-1.32;100.00;101910.75;4992389;28;20050;-83
2021/12/20 04:01:21;;;;;;;0.20;0.20;;;;;;;-1.27;100.00;101920.91;4991352;28;20487;-83
2021/12/20 04:03:50;;;;;;;0.20;0.20;;;;;;;-1.27;100.00;101923.56;4992214;28;20049;-82
2021/12/20 04:06:23;;;;;;;0.20;0.20;;;;;;;-1.25;100.00;101917.06;4994815;28;20525;-83
2021/12/20 04:08:52;;;;;;;0.20;0.20;;;;;;;-1.27;100.00;101923.56;4996626;28;20050;-83
2021/12/20 04:11:26;;;;;;;0.20;0.20;;;;;;;-1.38;100.00;101909.59;4990414;28;20054;-83
2021/12/20 04:14:01;;;;;;;0.20;0.20;;;;;;;-1.30;100.00;101903.38;4991647;28;20046;-82
2021/12/20 04:16:36;;;;;;;0.20;0.20;;;;;;;-1.33;100.00;101921.59;4994870;28;20058;-82
2021/12/20 04:19:09;;;;;;;0.20;0.20;;;;;;;-1.32;100.00;101921.44;4990230;28;20061;-83
2021/12/20 04:21:42;;;;;;;0.20;0.20;;;;;;;-1.28;100.00;101916.59;4987794;28;20054;-82
2021/12/20 04:24:15;;;;;;;0.20;0.20;;;;;;;-1.47;100.00;101915.94;4984611;28;20050;-83
2021/12/20 04:26:45;;;;;;;0.20;0.20;;;;;;;-1.23;100.00;101940.94;4981313;28;20395;-84
2021/12/20 04:29:13;;;;;;;0.20;0.20;;;;;;;-1.24;100.00;101947.31;4979073;28;20046;-83
2021/12/20 04:31:42;;;;;;;0.20;0.20;;;;;;;-1.30;100.00;101938.09;4994756;28;20494;-83
2021/12/20 04:34:15;;;;;;;0.20;0.20;;;;;;;-1.34;100.00;101931.47;4990099;28;20057;-84
2021/12/20 04:36:48;;;;;;;0.20;0.20;;;;;;;-1.42;100.00;101928.81;4988677;28;20387;-83
2021/12/20 04:39:19;;;;;;;0.20;0.20;;;;;;;-1.41;100.00;101936.66;4989401;28;20070;-83
2021/12/20 04:41:54;;;;;;;0.17;0.17;;;;;;;-1.60;100.00;101910.28;4992066;28;20058;-83
2021/12/20 04:44:27;;;;;;;0.20;0.20;;;;;;;-1.50;100.00;101945.66;4994998;28;20051;-83
2021/12/20 04:47:00;;;;;;;0.17;0.17;;;;;;;-1.47;100.00;101944.50;4987696;28;20046;-84
2021/12/20 04:49:34;;;;;;;0.20;0.20;;;;;;;-1.46;100.00;101949.66;4989472;28;20069;-82
2021/12/20 04:52:07;;;;;;;0.20;0.20;;;;;;;-1.48;100.00;101937.47;4997154;28;20058;-83
2021/12/20 04:54:40;;;;;;;0.10;0.10;;;;;;;-1.57;100.00;101921.47;4993358;28;20061;-83
2021/12/20 04:57:15;;;;;;;0.25;0.25;;;;;;;-1.51;100.00;101935.16;4992925;28;20049;-84
2021/12/20 04:59:48;;;;;;;0.20;0.20;;;;;;;-1.60;100.00;101934.31;4987989;28;20050;-83
2021/12/20 05:02:16;;;;;;;0.20;0.20;;;;;;;-1.74;100.00;101917.13;4995249;28;20046;-84
2021/12/20 05:04:50;;;;;;;0.30;0.30;;;;;;;-1.63;100.00;101948.00;4992253;28;20398;-83
2021/12/20 05:07:18;;;;;;;0.20;0.20;;;;;;;-1.70;100.00;101929.13;4983759;28;20046;-83
2021/12/20 05:09:57;;;;;;;0.20;0.20;;;;;;;-1.67;100.00;101935.97;4986159;28;20054;-83
2021/12/20 05:12:31;;;;;;;0.20;0.20;;;;;;;-1.74;100.00;101938.47;4990617;28;20070;-83
2021/12/20 05:15:06;;;;;;;0.17;0.17;;;;;;;-1.74;100.00;101938.47;4992576;28;20038;-83
2021/12/20 05:17:39;;;;;;;0.30;0.30;;;;;;;-1.94;100.00;101911.31;5003576;28;20050;-83
2021/12/20 05:20:12;;;;;;;0.10;0.10;;;;;;;-1.73;100.00;101946.34;4993528;28;20051;-83
2021/12/20 05:22:41;;;;;;;0.20;0.20;;;;;;;-1.83;100.00;101923.50;4999040;28;20054;-82
2021/12/20 05:25:14;;;;;;;0.20;0.20;;;;;;;-1.78;100.00;101929.16;4996362;28;20061;-83
2021/12/20 05:27:49;;;;;;;0.20;0.20;;;;;;;-1.80;100.00;101925.81;4996840;28;20050;-83
2021/12/20 05:30:23;;;;;;;0.20;0.20;;;;;;;-1.76;100.00;101927.97;4996015;28;20054;-82
2021/12/20 05:32:56;;;;;;;0.10;0.10;;;;;;;-1.78;100.00;101938.00;4992093;28;20046;-82
2021/12/20 05:35:30;;;;;;;0.20;0.20;;;;;;;-1.86;100.00;101916.66;4991610;28;20521;-83
2021/12/20 05:38:03;;;;;;;0.20;0.20;;;;;;;-1.71;100.00;101943.50;4992828;28;20581;-83
2021/12/20 05:40:36;;;;;;;0.13;0.13;;;;;;;-1.79;100.00;101940.84;4991973;28;20518;-82
2021/12/20 05:43:12;;;;;;;0.20;0.20;;;;;;;-1.74;100.00;101947.34;5000225;28;20413;-83
2021/12/20 05:45:46;;;;;;;0.20;0.20;;;;;;;-1.74;100.00;101951.81;4994769;28;20491;-82
2021/12/20 05:48:14;;;;;;;0.20;0.20;;;;;;;-1.76;100.00;101957.34;4994517;28;20062;-84
2021/12/20 05:50:47;;;;;;;0.20;0.20;;;;;;;-1.73;100.00;101951.69;4996303;28;20047;-82
2021/12/20 05:53:15;;;;;;;0.20;0.20;;;;;;;-1.66;100.00;101946.50;4991583;28;20521;-83
2021/12/20 05:55:49;;;;;;;0.20;0.20;;;;;;;-1.85;100.00;101934.34;4996150;28;20057;-82
2021/12/20 05:58:23;;;;;;;0.25;0.25;;;;;;;-1.67;100.00;101952.00;5026245;28;20050;-81
2021/12/20 06:00:57;;;;;;;0.20;0.20;;;;;;;-1.69;100.00;101960.19;4991469;28;20061;-82
2021/12/20 06:03:30;;;;;;;0.20;0.20;;;;;;;-1.78;100.00;101942.47;4993595;28;20431;-85
2021/12/20 06:06:03;;;;;;;0.20;0.20;;;;;;;-1.61;100.00;101948.69;4993347;28;20046;-82
2021/12/20 06:08:36;;;;;;;0.10;0.10;;;;;;;-1.61;100.00;101962.03;5021994;28;20050;-82
2021/12/20 06:11:10;;;;;;;0.20;0.20;;;;;;;-1.66;100.00;101959.84;4993038;28;20081;-82
2021/12/20 06:13:44;;;;;;;0.20;0.20;;;;;;;-1.60;100.00;101955.66;4995640;28;20069;-82
2021/12/20 06:16:18;;;;;;;0.20;0.20;;;;;;;-1.60;100.00;101964.53;4995113;28;20062;-82
2021/12/20 06:18:51;;;;;;;0.20;0.20;;;;;;;-1.66;100.00;101967.84;4997924;28;20065;-82
2021/12/20 06:21:24;;;;;;;0.10;0.10;;;;;;;-1.75;100.00;101979.53;5004635;28;20046;-82
2021/12/20 06:23:53;;;;;;;0.30;0.30;;;;;;;-1.76;100.00;101972.53;4997263;28;20061;-82
2021/12/20 06:26:26;;;;;;;0.20;0.20;;;;;;;-1.74;100.00;101983.84;4994174;28;20138;-82
2021/12/20 06:28:56;;;;;;;0.20;0.20;;;;;;;-1.87;100.00;101971.00;4994360;28;20046;-82
2021/12/20 06:31:29;;;;;;;0.22;0.22;;;;;;;-1.71;100.00;101991.56;5004840;28;20054;-82
2021/12/20 06:34:02;;;;;;;0.20;0.20;;;;;;;-1.67;100.00;101986.69;4995384;28;20418;-82
2021/12/20 06:36:35;;;;;;;0.22;0.22;;;;;;;-1.66;100.00;101986.53;5021678;28;20050;-82
2021/12/20 06:39:09;;;;;;;0.20;0.20;;;;;;;-1.75;100.00;101987.53;4992864;28;20049;-83
2021/12/20 06:41:42;;;;;;;0.20;0.20;;;;;;;-1.85;100.00;101982.38;4991532;28;20052;-83
2021/12/20 06:44:12;;;;;;;0.20;0.20;;;;;;;-1.84;100.00;101985.88;4993675;28;20080;-82
2021/12/20 06:46:41;;;;;;;0.20;0.20;;;;;;;-1.88;100.00;101980.00;5000385;28;20058;-81
2021/12/20 06:49:14;;;;;;;0.20;0.20;;;;;;;-1.92;100.00;101976.84;4992397;28;20050;-82
2021/12/20 06:51:48;;;;;;;0.20;0.20;;;;;;;-1.94;100.00;101980.69;4997240;28;20414;-82
2021/12/20 06:54:18;;;;;;;0.20;0.20;;;;;;;-1.94;100.00;101976.16;5008313;28;20407;-82
2021/12/20 06:56:47;;;;;;;0.20;0.20;;;;;;;-1.92;100.00;101990.19;4993369;28;20042;-81
2021/12/20 06:59:16;;;;;;;0.17;0.17;;;;;;;-1.98;100.00;101990.84;4995700;28;20057;-82
2021/12/20 07:01:50;;;;;;;0.20;0.20;;;;;;;-1.94;100.00;101986.84;4997437;28;20053;-82
2021/12/20 07:04:23;;;;;;;0.20;0.20;;;;;;;-1.94;100.00;101992.19;5005675;28;20510;-81
2021/12/20 07:06:52;;;;;;;0.22;0.22;;;;;;;-1.92;100.00;101992.88;4993916;28;20065;-81
2021/12/20 07:09:20;;;;;;;0.22;0.22;;;;;;;-1.84;100.00;101999.19;4991995;28;20050;-83
2021/12/20 07:11:54;;;;;;;0.10;0.10;;;;;;;-1.82;100.00;102000.72;5002047;28;20050;-83
2021/12/20 07:14:28;;;;;;;0.20;0.20;;;;;;;-1.90;100.00;101992.69;4993853;28;20049;-82
2021/12/20 07:17:02;;;;;;;0.10;0.10;;;;;;;-1.83;100.00;102007.03;4993613;28;20057;-81
2021/12/20 07:19:35;;;;;;;0.10;0.10;;;;;;;-1.91;100.00;102005.19;4993943;28;20061;-81
2021/12/20 07:22:08;;;;;;;0.20;0.20;;;;;;;-1.91;100.00;102002.50;5000618;28;20053;-81
2021/12/20 07:24:41;;;;;;;0.15;0.15;;;;;;;-1.95;100.00;102003.00;4990528;28;20054;-83
2021/12/20 07:27:14;;;;;;;0.20;0.20;;;;;;;-1.88;100.00;102014.69;4990070;28;20058;-81
2021/12/20 07:29:49;;;;;;;0.20;0.20;;;;;;;-1.93;100.00;102001.84;4993861;28;20050;-82
2021/12/20 07:32:22;;;;;;;0.52;0.28;;;;;;;-1.92;100.00;102008.88;4989983;28;20046;-82
2021/12/20 07:34:56;;;;;;;0.50;0.20;;;;;;;-1.88;100.00;102017.38;4987069;28;20414;-83
2021/12/20 07:37:29;;;;;;;0.20;0.20;;;;;;;-2.00;100.00;102014.19;4990364;28;20069;-82
2021/12/20 07:39:57;;;;;;;0.30;0.30;;;;;;;-2.00;100.00;102016.00;4990778;28;20049;-82
2021/12/20 07:42:30;;;;;;;0.20;0.20;;;;;;;-2.00;100.00;102010.66;4992230;28;20061;-82
2021/12/20 07:45:07;;;;;;;0.20;0.20;;;;;;;-2.07;100.00;102000.66;4987097;28;20053;-81
2021/12/20 07:47:40;;;;;;;0.20;0.20;;;;;;;-1.94;100.00;102031.38;4984649;28;20058;-82
2021/12/20 07:50:13;;;;;;;0.20;0.20;;;;;;;-1.96;100.00;102030.69;4989521;28;20046;-83
2021/12/20 07:52:47;;;;;;;0.30;0.30;;;;;;;-2.00;100.00;102027.53;4988759;28;20054;-83
2021/12/20 07:55:20;;;;;;;0.20;0.20;;;;;;;-2.03;100.00;102014.53;4988495;28;20050;-82
2021/12/20 07:57:53;;;;;;;0.20;0.20;;;;;;;-1.94;100.00;102026.88;4984572;28;20441;-82
2021/12/20 08:00:23;;;;;;;0.30;0.30;;;;;;;-1.97;100.00;102013.84;5003022;28;20922;-81
2021/12/20 08:02:57;;;;;;;0.20;0.20;;;;;;;-2.10;100.00;101993.00;4975871;28;20046;-84
2021/12/20 08:05:32;;;;;;;0.20;0.20;;;;;;;-1.83;100.00;102024.91;4968326;28;20059;-85
2021/12/20 08:08:06;;;;;;;0.20;0.20;;;;;;;-1.81;100.00;102020.22;4959997;28;20052;-85
2021/12/20 08:10:40;;;;;;;0.30;0.30;;;;;;;-1.61;100.00;102042.09;4963104;28;20057;-85
2021/12/20 08:13:15;;;;;;;0.20;0.20;;;;;;;-1.69;100.00;102021.56;5001468;28;20058;-84
2021/12/20 08:15:49;;;;;;;0.20;0.20;;;;;;;-1.62;100.00;102030.56;4975069;28;20066;-85
2021/12/20 08:18:22;;;;;;;0.20;0.20;;;;;;;-1.65;100.00;102014.06;4969774;28;20057;-84
2021/12/20 08:20:51;;;;;;;0.20;0.20;;;;;;;-1.49;100.00;102051.47;4977201;28;20058;-84
2021/12/20 08:23:25;;;;;;;0.30;0.30;;;;;;;-1.73;100.00;102010.41;4966231;28;20050;-82
2021/12/20 08:25:58;;;;;;;0.20;0.20;;;;;;;-1.52;100.00;102041.09;4969937;28;20057;-83
2021/12/20 08:28:32;;;;;;;0.13;0.13;;;;;;;-1.64;100.00;102034.41;4968404;28;20062;-83
2021/12/20 08:31:01;;;;;;;0.20;0.20;;;;;;;-1.48;100.00;102052.28;4969589;28;20069;-86
2021/12/20 08:33:35;;;;;;;0.30;0.30;;;;;;;-1.40;100.00;102050.44;4969865;28;21008;-83
2021/12/20 08:36:12;;;;;;;0.20;0.20;;;;;;;-1.37;100.00;102050.13;4968258;28;20780;-84
2021/12/20 08:38:45;;;;;;;0.20;0.20;;;;;;;-1.28;100.00;102044.78;4967756;28;20050;-84
2021/12/20 08:41:18;;;;;;;0.20;0.20;;;;;;;-1.28;100.00;102055.47;4999919;28;20061;-83
2021/12/20 08:43:47;;;;;;;0.25;0.20;;;;;;;-1.36;100.00;102021.59;4970346;28;20257;-85
2021/12/20 08:46:16;;;;;;;0.20;0.20;;;;;;;-1.22;100.00;102052.94;4973331;28;20042;-83
2021/12/20 08:48:44;;;;;;;0.20;0.20;;;;;;;-1.09;100.00;102062.28;4969994;28;20081;-83
2021/12/20 08:51:13;;;;;;;0.30;0.30;;;;;;;-1.11;100.00;102062.47;4968653;28;20089;-84
2021/12/20 08:53:47;;;;;;;0.47;0.30;;;;;;;-1.04;100.00;102054.63;4970378;28;20058;-86
2021/12/20 08:56:20;;;;;;;0.20;0.20;;;;;;;-1.02;100.00;102071.31;4970060;28;20062;-85
2021/12/20 08:58:48;;;;;;;0.20;0.20;;;;;;;-1.00;100.00;102069.31;4973360;28;20042;-81
2021/12/20 09:01:23;;;;;;;0.22;0.22;;;;;;;-0.98;100.00;102069.13;4981391;28;20053;-84
2021/12/20 09:03:57;;;;;;;0.40;0.20;;;;;;;-0.94;100.00;102063.31;4981352;28;20091;-82
2021/12/20 09:06:26;;;;;;;0.20;0.20;;;;;;;-0.87;100.00;102072.31;4982666;28;20054;-83
2021/12/20 09:08:55;;;;;;;0.20;0.20;;;;;;;-0.88;100.00;102073.31;4973447;28;20050;-82
2021/12/20 09:11:28;;;;;;;0.10;0.10;;;;;;;-0.82;100.00;102081.66;4978291;28;20050;-85
2021/12/20 09:14:02;;;;;;;0.20;0.20;;;;;;;-0.83;100.00;102072.78;4980385;28;20077;-82
2021/12/20 09:16:36;;;;;;;0.22;0.22;;;;;;;-0.78;100.00;102083.81;4976111;28;20093;-84
2021/12/20 09:19:09;;;;;;;0.30;0.30;;;;;;;-0.66;100.00;102084.31;4970324;28;20991;-84
2021/12/20 09:21:43;;;;;;;0.20;0.20;;;;;;;-0.87;100.00;102045.56;4969322;28;20069;-81
2021/12/20 09:24:16;;;;;;;0.20;0.20;;;;;;;-0.52;100.00;102086.25;4970724;28;20450;-85
2021/12/20 09:26:49;;;;;;;0.20;0.20;;;;;;;-0.53;100.00;102086.44;4968531;28;20844;-85
2021/12/20 09:29:18;;;;;;;0.20;0.20;;;;;;;-0.48;100.00;102081.41;4970448;28;20062;-85
2021/12/20 09:31:47;;;;;;;0.30;0.30;;;;;;;-0.45;100.00;102090.94;4967869;28;20055;-83
2021/12/20 09:34:21;;;;;;;0.20;0.20;;;;;;;-0.37;100.00;102082.88;4972798;28;20046;-85
2021/12/20 09:36:55;;;;;;;0.20;0.20;;;;;;;-0.33;100.00;102086.88;4976672;28;20619;-83
2021/12/20 09:39:28;;;;;;;0.30;0.30;;;;;;;-0.32;100.00;102093.06;4980401;28;20094;-83
2021/12/20 09:42:02;;;;;;;0.20;0.20;;;;;;;-0.42;100.00;102069.19;4981434;28;20054;-84
2021/12/20 09:44:36;;;;;;;0.20;0.20;;;;;;;-0.15;100.00;102093.81;4983789;28;20058;-82
2021/12/20 09:47:10;;;;;;;0.40;0.40;;;;;;;-0.07;100.00;102094.66;5012135;28;20058;-84
2021/12/20 09:49:39;;;;;;;0.30;0.30;;;;;;;0.04;100.00;102087.22;4977193;28;20058;-81
2021/12/20 09:52:12;;;;;;;0.22;0.22;;;;;;;-0.01;100.00;102083.22;4970974;28;20530;-81
2021/12/20 09:54:46;;;;;;;0.20;0.20;;;;;;;0.11;100.00;102091.72;4976785;28;20466;-84
2021/12/20 09:57:21;;;;;;;0.30;0.30;;;;;;;0.19;100.00;102095.34;4970522;28;20069;-84
2021/12/20 09:59:55;;;;;;;0.22;0.22;;;;;;;0.26;100.00;102091.81;4970021;28;20444;-83
2021/12/20 10:02:29;;;;;;;0.20;0.20;;;;;;;0.27;100.00;102097.97;4972921;28;20050;-81
2021/12/20 10:05:03;;;;;;;0.22;0.20;;;;;;;0.27;100.00;102076.56;4970658;28;20058;-83
2021/12/20 10:07:37;;;;;;;0.20;0.20;;;;;;;0.31;100.00;102101.97;4976516;28;20486;-81
2021/12/20 10:10:11;;;;;;;0.20;0.20;;;;;;;0.30;100.00;102087.75;4983537;28;20061;-84
2021/12/20 10:12:50;;;;;;;0.20;0.20;;;;;;;0.41;100.00;102096.38;4969293;28;20054;-83
2021/12/20 10:15:18;;;;;;;0.20;0.20;;;;;;;0.42;100.00;102092.69;4969600;28;20927;-84
2021/12/20 10:17:56;;;;;;;0.25;0.25;;;;;;;0.42;100.00;102096.22;4973228;28;20066;-84
2021/12/20 10:20:31;;;;;;;0.30;0.30;;;;;;;0.56;100.00;102089.25;4970335;28;20058;-83
2021/12/20 10:23:13;;;;;;;0.20;0.20;;;;;;;0.68;100.00;102095.03;4973448;28;20054;-84
2021/12/20 10:25:48;;;;;;;0.20;0.20;;;;;;;0.63;100.00;102098.22;4980772;28;20078;-81
2021/12/20 10:28:24;;;;;;;0.28;0.28;;;;;;;0.65;100.00;102090.03;4986723;28;20410;-82
2021/12/20 10:31:00;;;;;;;0.22;0.22;;;;;;;0.79;100.00;102101.81;4979422;28;20050;-82
2021/12/20 10:33:30;;;;;;;0.30;0.30;;;;;;;0.86;100.00;102105.44;4982161;28;21214;-82
2021/12/20 10:36:05;;;;;;;0.20;0.20;;;;;;;0.77;100.00;102096.63;4980965;28;20075;-83
2021/12/20 10:38:37;;;;;;;0.20;0.20;;;;;;;0.89;100.00;102106.94;4981118;28;20070;-81
2021/12/20 10:41:14;;;;;;;0.30;0.30;;;;;;;0.91;100.00;102099.53;4976737;28;20062;-84
2021/12/20 10:43:51;;;;;;;0.30;0.30;;;;;;;0.97;100.00;102104.19;4976481;28;20298;-82
2021/12/20 10:46:22;;;;;;;0.20;0.20;;;;;;;1.08;100.00;102111.78;4974653;28;20081;-82
2021/12/20 10:49:02;;;;;;;0.20;0.20;;;;;;;1.04;100.00;102112.31;4975614;28;20069;-81
2021/12/20 10:51:38;;;;;;;0.30;0.30;;;;;;;1.08;100.00;102113.63;4981027;28;20070;-83
2021/12/20 10:54:15;;;;;;;0.20;0.20;;;;;;;1.10;100.00;102114.28;4980994;28;20058;-81
2021/12/20 10:56:52;;;;;;;0.20;0.20;;;;;;;1.23;100.00;102103.78;5013085;28;20614;-83
2021/12/20 10:59:27;;;;;;;0.20;0.20;;;;;;;1.29;100.00;102118.31;4981603;28;20053;-82
2021/12/20 11:04:50;;;;;;;0.20;0.20;;;;;;;1.42;100.00;102109.63;4997967;28;20042;-84
2021/12/20 11:10:10;;;;;;;0.60;0.30;;;;;;;1.48;100.00;102099.00;5001188;28;20732;-83
2021/12/20 11:12:43;;;;;;;0.20;0.20;;;;;;;1.58;100.00;102103.25;5001008;28;20053;-81
2021/12/20 11:15:16;;;;;;;0.13;0.13;;;;;;;1.55;100.00;102096.41;5002736;28;20053;-81
2021/12/20 11:17:49;;;;;;;0.10;0.10;;;;;;;1.55;100.00;102106.28;5005325;28;20054;-84
2021/12/20 11:20:22;;;;;;;0.10;0.10;;;;;;;1.61;100.00;102109.06;5001192;28;20064;-82
2021/12/20 11:22:50;;;;;;;0.13;0.13;;;;;;;1.66;100.00;102108.53;5000634;28;20058;-82
2021/12/20 11:25:18;;;;;;;0.30;0.30;;;;;;;1.68;100.00;102093.91;4999295;28;20072;-82
2021/12/20 11:27:52;;;;;;;0.20;0.20;;;;;;;1.74;100.00;102103.09;4997312;28;20068;-84
2021/12/20 11:30:27;;;;;;;0.20;0.20;;;;;;;1.68;100.00;102099.25;4999871;28;20057;-83
2021/12/20 11:32:56;;;;;;;0.20;0.20;;;;;;;1.78;100.00;102107.06;4998153;28;20053;-82
2021/12/20 11:35:32;;;;;;;0.20;0.20;;;;;;;1.86;100.00;102106.97;5000735;28;20085;-82
2021/12/20 11:38:06;;;;;;;0.30;0.30;;;;;;;1.84;100.00;102108.97;5000817;28;20061;-82
2021/12/20 11:40:39;;;;;;;0.20;0.20;;;;;;;1.84;100.00;102097.44;4999326;28;20054;-82
2021/12/20 11:43:12;;;;;;;0.30;0.30;;;;;;;1.88;100.00;102098.72;4999014;28;20038;-81
2021/12/20 11:45:47;;;;;;;0.20;0.20;;;;;;;1.85;100.00;102091.00;5002421;28;20061;-82
2021/12/20 11:48:17;;;;;;;0.10;0.10;;;;;;;1.92;100.00;102091.97;5002495;28;20466;-82
2021/12/20 11:50:56;;;;;;;0.28;0.28;;;;;;;1.81;100.00;102098.63;5005046;28;20060;-81
2021/12/20 11:53:36;;;;;;;0.20;0.20;;;;;;;1.87;100.00;102083.63;5000453;28;20058;-82
2021/12/20 11:56:05;;;;;;;0.22;0.22;;;;;;;1.92;100.00;102101.84;4997309;28;20050;-84
2021/12/20 11:58:46;;;;;;;0.30;0.30;;;;;;;1.95;100.00;102102.31;4999651;28;20049;-83